createdAt,value
2023-02-22T00:00:48.411Z,14.74
2023-02-22T00:03:25.289Z,14.74
2023-02-22T00:06:04.300Z,14.74
2023-02-22T00:08:33.584Z,14.57
2023-02-22T00:11:09.058Z,14.62
2023-02-22T00:13:37.581Z,14.63
2023-02-22T00:16:05.147Z,14.61
2023-02-22T00:18:32.170Z,14.46
2023-02-22T00:21:00.970Z,14.46
2023-02-22T00:23:30.678Z,14.43
2023-02-22T00:25:59.573Z,14.50
2023-02-22T00:28:27.189Z,14.39
2023-02-22T00:30:55.209Z,14.39
2023-02-22T00:33:22.737Z,14.31
2023-02-22T00:35:49.892Z,14.29
2023-02-22T00:38:19.178Z,14.24
2023-02-22T00:40:46.218Z,14.22
2023-02-22T00:43:14.218Z,14.23
2023-02-22T00:45:41.882Z,14.20
2023-02-22T00:48:09.624Z,14.12
2023-02-22T00:50:37.303Z,14.07
2023-02-22T00:53:05.508Z,14.14
2023-02-22T00:55:35.480Z,14.07
2023-02-22T00:58:03.988Z,14.09
2023-02-22T01:00:40.001Z,14.03
2023-02-22T01:03:08.973Z,14.03
2023-02-22T01:05:36.142Z,14.09
2023-02-22T01:08:09.793Z,14.06
2023-02-22T01:10:37.985Z,14.03
2023-02-22T01:13:09.435Z,14.11
2023-02-22T01:15:39.392Z,14.10
2023-02-22T01:18:07.388Z,14.12
2023-02-22T01:20:34.521Z,14.00
2023-02-22T01:23:03.793Z,14.02
2023-02-22T01:25:32.355Z,13.94
2023-02-22T01:28:01.513Z,13.91
2023-02-22T01:30:33.348Z,13.94
2023-02-22T01:33:02.009Z,13.90
2023-02-22T01:35:32.950Z,13.87
2023-02-22T01:38:00.200Z,13.89
2023-02-22T01:40:36.937Z,13.92
2023-02-22T01:43:24.179Z,13.94
2023-02-22T01:45:58.818Z,14.00
2023-02-22T01:48:31.795Z,14.04
2023-02-22T01:51:10.847Z,14.04
2023-02-22T01:53:45.727Z,13.99
2023-02-22T01:56:15.299Z,14.00
2023-02-22T01:58:49.149Z,14.04
2023-02-22T02:01:20.117Z,14.02
2023-02-22T02:03:49.346Z,13.99
2023-02-22T02:06:17.133Z,14.01
2023-02-22T02:09:11.713Z,14.02
2023-02-22T02:11:43.490Z,13.96
2023-02-22T02:14:11.356Z,13.93
2023-02-22T02:16:45.076Z,13.86
2023-02-22T02:19:53.100Z,13.92
2023-02-22T02:22:29.251Z,13.88
2023-02-22T02:25:31.482Z,13.96
2023-02-22T02:28:35.509Z,13.98
2023-02-22T02:31:20.579Z,14.00
2023-02-22T02:34:02.748Z,14.00
2023-02-22T02:36:48.803Z,14.04
2023-02-22T02:39:50.608Z,14.04
2023-02-22T02:42:23.862Z,14.05
2023-02-22T02:45:00.297Z,14.05
2023-02-22T02:47:30.546Z,14.06
2023-02-22T02:50:10.579Z,14.04
2023-02-22T02:52:41.734Z,14.01
2023-02-22T02:55:11.514Z,14.03
2023-02-22T02:57:41.766Z,14.05
2023-02-22T03:00:22.826Z,14.03
2023-02-22T03:03:10.479Z,14.01
2023-02-22T03:05:53.893Z,13.97
2023-02-22T03:08:35.135Z,13.93
2023-02-22T03:11:17.614Z,13.95
2023-02-22T03:14:33.938Z,13.94
2023-02-22T03:17:37.380Z,13.95
2023-02-22T03:20:16.310Z,13.94
2023-02-22T03:22:55.195Z,13.99
2023-02-22T03:25:34.279Z,13.97
2023-02-22T03:28:07.475Z,13.97
2023-02-22T03:30:43.023Z,13.95
2023-02-22T03:33:20.514Z,13.95
2023-02-22T03:35:59.879Z,13.93
2023-02-22T03:38:30.520Z,13.86
2023-02-22T03:41:01.458Z,13.87
2023-02-22T03:43:34.911Z,13.77
2023-02-22T03:46:06.831Z,13.66
2023-02-22T03:48:44.323Z,13.69
2023-02-22T03:51:17.351Z,13.69
2023-02-22T03:53:48.892Z,13.67
2023-02-22T03:56:23.624Z,13.67
2023-02-22T03:58:51.915Z,13.65
2023-02-22T04:01:20.040Z,13.64
2023-02-22T04:03:47.130Z,13.65
2023-02-22T04:06:15.442Z,13.65
2023-02-22T04:08:44.152Z,13.64
2023-02-22T04:11:11.723Z,13.60
2023-02-22T04:13:39.424Z,13.59
2023-02-22T04:16:06.748Z,13.57
2023-02-22T04:18:35.510Z,13.53
2023-02-22T04:21:03.787Z,13.53
2023-02-22T04:23:37.541Z,13.52
2023-02-22T04:26:05.223Z,13.52
2023-02-22T04:28:32.618Z,13.52
2023-02-22T04:31:25.766Z,13.54
2023-02-22T04:33:54.796Z,13.53
2023-02-22T04:36:27.747Z,13.55
2023-02-22T04:38:55.272Z,13.54
2023-02-22T04:41:24.431Z,13.51
2023-02-22T04:43:52.439Z,13.49
2023-02-22T04:46:22.654Z,13.47
2023-02-22T04:48:49.981Z,13.48
2023-02-22T04:51:21.098Z,13.45
2023-02-22T04:54:08.681Z,13.39
2023-02-22T04:56:37.805Z,13.39
2023-02-22T04:59:06.158Z,13.40
2023-02-22T05:01:34.858Z,13.41
2023-02-22T05:04:07.576Z,13.41
2023-02-22T05:06:34.738Z,13.40
2023-02-22T05:09:01.673Z,13.38
2023-02-22T05:11:29.192Z,13.36
2023-02-22T05:13:56.172Z,13.30
2023-02-22T05:16:23.317Z,13.30
2023-02-22T05:18:50.722Z,13.29
2023-02-22T05:21:18.136Z,13.28
2023-02-22T05:23:45.190Z,13.24
2023-02-22T05:26:12.302Z,13.24
2023-02-22T05:28:39.387Z,13.25
2023-02-22T05:31:07.629Z,13.22
2023-02-22T05:33:34.650Z,13.22
2023-02-22T05:36:01.748Z,13.16
2023-02-22T05:38:29.009Z,13.16
2023-02-22T05:40:56.988Z,13.10
2023-02-22T05:43:23.948Z,13.07
2023-02-22T05:45:50.866Z,13.07
2023-02-22T05:48:17.710Z,13.05
2023-02-22T05:50:44.724Z,13.06
2023-02-22T05:53:11.558Z,13.03
2023-02-22T05:55:38.605Z,13.00
2023-02-22T05:58:06.036Z,13.01
2023-02-22T06:00:33.183Z,12.97
2023-02-22T06:03:03.909Z,12.96
2023-02-22T06:05:31.695Z,12.93
2023-02-22T06:07:59.201Z,12.93
2023-02-22T06:10:27.211Z,12.90
2023-02-22T06:12:55.312Z,12.89
2023-02-22T06:15:23.681Z,12.87
2023-02-22T06:17:51.754Z,12.88
2023-02-22T06:20:20.803Z,12.84
2023-02-22T06:22:49.001Z,12.85
2023-02-22T06:25:18.750Z,12.85
2023-02-22T06:27:45.673Z,12.85
2023-02-22T06:30:16.205Z,12.85
2023-02-22T06:32:43.139Z,12.85
2023-02-22T06:35:10.154Z,12.84
2023-02-22T06:37:38.786Z,12.83
2023-02-22T06:40:06.137Z,12.82
2023-02-22T06:42:48.629Z,12.84
2023-02-22T06:45:17.527Z,12.84
2023-02-22T06:47:44.412Z,12.86
2023-02-22T06:50:21.971Z,12.88
2023-02-22T06:52:49.013Z,12.91
2023-02-22T06:55:23.653Z,12.98
2023-02-22T06:57:50.907Z,13.02
2023-02-22T07:00:20.435Z,13.10
2023-02-22T07:02:50.654Z,13.16
2023-02-22T07:05:19.850Z,13.21
2023-02-22T07:07:48.110Z,13.27
2023-02-22T07:10:29.109Z,13.36
2023-02-22T07:12:56.043Z,13.44
2023-02-22T07:15:24.775Z,13.53
2023-02-22T07:17:52.725Z,13.57
2023-02-22T07:20:20.901Z,13.65
2023-02-22T07:22:48.438Z,13.71
2023-02-22T07:25:15.365Z,13.73
2023-02-22T07:27:42.696Z,13.73
2023-02-22T07:30:31.683Z,13.83
2023-02-22T07:33:01.132Z,13.86
2023-02-22T07:35:33.735Z,14.03
2023-02-22T07:38:00.871Z,14.16
2023-02-22T07:40:28.489Z,14.26
2023-02-22T07:43:07.128Z,14.40
2023-02-22T07:45:35.828Z,14.61
2023-02-22T07:48:04.582Z,14.76
2023-02-22T07:50:32.800Z,15.07
2023-02-22T07:53:02.868Z,15.44
2023-02-22T07:55:31.290Z,15.91
2023-02-22T07:58:01.260Z,16.37
2023-02-22T08:00:32.001Z,16.78
2023-02-22T08:03:00.671Z,17.08
2023-02-22T08:05:29.565Z,17.44
2023-02-22T08:07:57.024Z,17.85
2023-02-22T08:10:26.527Z,18.23
2023-02-22T08:12:54.245Z,18.29
2023-02-22T08:15:29.329Z,18.24
2023-02-22T08:17:57.964Z,18.18
2023-02-22T08:20:25.777Z,18.23
2023-02-22T08:22:54.330Z,18.81
2023-02-22T08:25:23.358Z,19.39
2023-02-22T08:27:50.449Z,19.82
2023-02-22T08:30:22.013Z,20.12
2023-02-22T08:32:50.701Z,20.52
2023-02-22T08:35:19.197Z,20.86
2023-02-22T08:37:49.016Z,21.15
2023-02-22T08:40:18.301Z,21.37
2023-02-22T08:42:45.311Z,21.51
2023-02-22T08:45:13.489Z,21.47
2023-02-22T08:47:41.014Z,21.88
2023-02-22T08:50:10.065Z,22.41
2023-02-22T08:52:36.932Z,22.85
2023-02-22T08:55:04.005Z,23.33
2023-02-22T08:57:31.894Z,23.84
2023-02-22T08:59:58.808Z,24.10
2023-02-22T09:02:25.704Z,24.59
2023-02-22T09:04:52.617Z,25.03
2023-02-22T09:07:19.542Z,25.37
2023-02-22T09:09:52.432Z,25.77
2023-02-22T09:12:19.349Z,26.13
2023-02-22T09:14:46.355Z,26.61
2023-02-22T09:17:13.325Z,27.14
2023-02-22T09:19:40.261Z,27.56
2023-02-22T09:22:07.374Z,27.33
2023-02-22T09:24:34.661Z,26.70
2023-02-22T09:27:04.449Z,26.08
2023-02-22T09:29:31.766Z,26.08
2023-02-22T09:31:58.789Z,26.65
2023-02-22T09:34:29.855Z,27.11
2023-02-22T09:36:57.782Z,27.31
2023-02-22T09:39:25.671Z,27.48
2023-02-22T09:42:04.347Z,27.67
2023-02-22T09:44:44.012Z,27.91
2023-02-22T09:47:32.509Z,28.11
2023-02-22T09:50:05.582Z,28.48
2023-02-22T09:52:39.712Z,28.73
2023-02-22T09:55:10.211Z,29.04
2023-02-22T09:57:43.120Z,29.13
2023-02-22T10:00:20.294Z,28.26
2023-02-22T10:03:06.982Z,28.15
2023-02-22T10:05:40.072Z,27.66
2023-02-22T10:08:13.604Z,26.45
2023-02-22T10:10:47.075Z,25.54
2023-02-22T10:13:22.935Z,24.57
2023-02-22T10:16:21.140Z,24.17
2023-02-22T10:19:08.369Z,23.97
2023-02-22T10:22:05.086Z,22.91
2023-02-22T10:24:53.203Z,22.31
2023-02-22T10:27:29.818Z,22.07
2023-02-22T10:30:23.383Z,21.86
2023-02-22T10:33:15.443Z,21.98
2023-02-22T10:35:46.917Z,21.82
2023-02-22T10:38:23.630Z,21.87
2023-02-22T10:41:11.007Z,22.27
2023-02-22T10:43:41.459Z,22.94
2023-02-22T10:46:13.434Z,23.29
2023-02-22T10:48:42.883Z,23.16
2023-02-22T10:51:10.372Z,23.15
2023-02-22T10:53:38.621Z,23.45
2023-02-22T10:56:08.657Z,23.56
2023-02-22T10:58:54.321Z,23.67
2023-02-22T11:01:29.334Z,23.41
2023-02-22T11:04:16.877Z,23.50
2023-02-22T11:06:49.905Z,23.90
2023-02-22T11:09:24.988Z,24.41
2023-02-22T11:12:09.913Z,24.17
2023-02-22T11:14:36.800Z,24.81
2023-02-22T11:17:08.836Z,24.75
2023-02-22T11:19:38.502Z,24.62
2023-02-22T11:22:05.625Z,24.74
2023-02-22T11:24:48.344Z,24.39
2023-02-22T11:27:33.849Z,24.40
2023-02-22T11:30:22.578Z,24.36
2023-02-22T11:32:57.748Z,23.54
2023-02-22T11:35:33.620Z,23.46
2023-02-22T11:38:31.067Z,23.36
2023-02-22T11:41:16.078Z,22.27
2023-02-22T11:43:45.217Z,21.78
2023-02-22T11:46:16.699Z,21.76
2023-02-22T11:49:07.915Z,21.44
2023-02-22T11:51:35.157Z,21.17
2023-02-22T11:54:10.993Z,20.82
2023-02-22T11:56:47.157Z,20.93
2023-02-22T12:00:15.633Z,20.87
2023-02-22T12:02:56.412Z,20.29
2023-02-22T12:05:59.791Z,19.64
2023-02-22T12:08:41.250Z,19.30
2023-02-22T12:11:28.595Z,19.27
2023-02-22T12:14:31.957Z,18.70
2023-02-22T12:17:26.183Z,18.52
2023-02-22T12:20:22.219Z,18.08
2023-02-22T12:23:02.263Z,18.29
2023-02-22T12:25:33.914Z,18.41
2023-02-22T12:28:24.834Z,18.05
2023-02-22T12:31:18.961Z,17.46
2023-02-22T12:33:55.602Z,17.67
2023-02-22T12:36:29.110Z,17.96
2023-02-22T12:39:07.252Z,18.04
2023-02-22T12:41:41.015Z,18.21
2023-02-22T12:44:10.194Z,18.36
2023-02-22T12:46:44.535Z,18.28
2023-02-22T12:49:22.683Z,17.71
2023-02-22T12:52:22.295Z,18.03
2023-02-22T12:55:18.004Z,17.65
2023-02-22T12:58:16.054Z,17.84
2023-02-22T13:00:57.596Z,17.65
2023-02-22T13:03:42.267Z,17.56
2023-02-22T13:06:27.472Z,17.55
2023-02-22T13:09:09.861Z,17.51
2023-02-22T13:12:09.918Z,17.48
2023-02-22T13:14:59.104Z,17.45
2023-02-22T13:17:38.285Z,17.31
2023-02-22T13:20:25.777Z,16.93
2023-02-22T13:23:15.529Z,17.04
2023-02-22T13:25:58.878Z,16.76
2023-02-22T13:29:17.058Z,16.80
2023-02-22T13:32:11.775Z,16.71
2023-02-22T13:34:54.436Z,16.89
2023-02-22T13:37:21.438Z,16.83
2023-02-22T13:40:06.932Z,16.78
2023-02-22T13:42:48.778Z,16.73
2023-02-22T13:45:18.952Z,16.72
2023-02-22T13:47:54.611Z,16.75
2023-02-22T13:50:35.679Z,16.98
2023-02-22T13:53:11.905Z,16.92
2023-02-22T13:55:42.896Z,16.78
2023-02-22T13:58:12.742Z,16.69
2023-02-22T14:00:42.406Z,16.73
2023-02-22T14:03:15.045Z,16.55
2023-02-22T14:05:42.612Z,16.47
2023-02-22T14:08:33.968Z,16.37
2023-02-22T14:11:12.769Z,16.49
2023-02-22T14:13:57.090Z,16.47
2023-02-22T14:16:28.916Z,16.53
2023-02-22T14:19:17.962Z,16.22
2023-02-22T14:22:02.324Z,16.38
2023-02-22T14:24:48.708Z,16.50
2023-02-22T14:27:17.661Z,16.63
2023-02-22T14:29:54.318Z,16.49
2023-02-22T14:32:30.548Z,16.29
2023-02-22T14:35:01.219Z,16.36
2023-02-22T14:37:33.613Z,16.27
2023-02-22T14:40:13.330Z,16.33
2023-02-22T14:42:47.682Z,16.38
2023-02-22T14:45:29.753Z,16.53
2023-02-22T14:48:25.095Z,16.45
2023-02-22T14:51:08.823Z,16.63
2023-02-22T14:54:03.888Z,16.47
2023-02-22T14:56:49.309Z,16.47
2023-02-22T14:59:25.226Z,16.28
2023-02-22T15:02:13.537Z,16.43
2023-02-22T15:04:44.132Z,16.25
2023-02-22T15:07:40.262Z,16.14
2023-02-22T15:10:17.953Z,16.22
2023-02-22T15:12:52.409Z,16.10
2023-02-22T15:15:22.893Z,16.14
2023-02-22T15:17:58.059Z,15.99
2023-02-22T15:20:26.066Z,15.90
2023-02-22T15:23:00.275Z,15.89
2023-02-22T15:25:31.315Z,16.11
2023-02-22T15:28:05.507Z,15.95
2023-02-22T15:30:34.329Z,16.04
2023-02-22T15:33:24.330Z,15.90
2023-02-22T15:35:58.309Z,15.86
2023-02-22T15:38:30.716Z,15.71
2023-02-22T15:41:05.637Z,15.66
2023-02-22T15:43:32.867Z,15.88
2023-02-22T15:46:00.960Z,15.99
2023-02-22T15:48:28.787Z,15.97
2023-02-22T15:51:04.852Z,15.89
2023-02-22T15:53:40.220Z,15.70
2023-02-22T15:56:14.395Z,15.64
2023-02-22T15:58:44.296Z,15.55
2023-02-22T16:01:19.307Z,15.37
2023-02-22T16:03:50.197Z,15.62
2023-02-22T16:06:40.458Z,15.63
2023-02-22T16:09:26.185Z,15.53
2023-02-22T16:12:30.683Z,15.35
2023-02-22T16:14:59.181Z,15.42
2023-02-22T16:17:35.768Z,15.43
2023-02-22T16:20:11.796Z,15.33
2023-02-22T16:22:39.895Z,15.27
2023-02-22T16:25:28.325Z,15.19
2023-02-22T16:28:03.256Z,14.99
2023-02-22T16:30:39.552Z,14.94
2023-02-22T16:33:13.702Z,14.93
2023-02-22T16:35:41.222Z,14.83
2023-02-22T16:38:17.032Z,14.76
2023-02-22T16:40:53.985Z,14.69
2023-02-22T16:43:27.650Z,14.95
2023-02-22T16:45:54.531Z,14.87
2023-02-22T16:48:26.695Z,14.82
2023-02-22T16:50:56.423Z,14.61
2023-02-22T16:53:26.037Z,14.52
2023-02-22T16:56:04.178Z,14.63
2023-02-22T16:58:36.931Z,14.45
2023-02-22T17:01:04.079Z,14.56
2023-02-22T17:03:30.996Z,14.50
2023-02-22T17:05:58.133Z,14.38
2023-02-22T17:08:25.262Z,14.47
2023-02-22T17:10:56.835Z,14.49
2023-02-22T17:13:27.266Z,14.46
2023-02-22T17:15:55.095Z,14.34
2023-02-22T17:18:24.133Z,14.36
2023-02-22T17:20:52.552Z,14.38
2023-02-22T17:23:20.246Z,14.29
2023-02-22T17:25:59.352Z,14.36
2023-02-22T17:28:26.950Z,14.28
2023-02-22T17:30:56.004Z,14.37
2023-02-22T17:33:27.755Z,14.30
2023-02-22T17:35:58.925Z,14.33
2023-02-22T17:38:29.245Z,14.36
2023-02-22T17:40:57.644Z,14.27
2023-02-22T17:43:25.362Z,14.28
2023-02-22T17:45:53.962Z,14.25
2023-02-22T17:48:23.892Z,14.30
2023-02-22T17:50:51.595Z,14.32
2023-02-22T17:53:21.865Z,14.40
2023-02-22T17:55:48.823Z,14.32
2023-02-22T17:58:16.747Z,14.26
2023-02-22T18:00:47.535Z,14.34
2023-02-22T18:03:19.920Z,14.43
2023-02-22T18:05:50.007Z,14.37
2023-02-22T18:08:16.974Z,14.39
2023-02-22T18:10:44.029Z,14.39
2023-02-22T18:13:18.894Z,14.45
2023-02-22T18:15:46.978Z,14.33
2023-02-22T18:18:15.031Z,14.30
2023-02-22T18:20:44.396Z,14.32
2023-02-22T18:23:16.849Z,14.40
2023-02-22T18:26:07.608Z,14.38
2023-02-22T18:28:36.939Z,14.28
2023-02-22T18:31:15.884Z,14.28
2023-02-22T18:33:44.132Z,14.32
2023-02-22T18:36:11.850Z,14.24
2023-02-22T18:38:43.296Z,14.33
2023-02-22T18:41:16.115Z,14.34
2023-02-22T18:43:43.875Z,14.44
2023-02-22T18:46:19.321Z,14.47
2023-02-22T18:48:47.793Z,14.47
2023-02-22T18:51:17.414Z,14.46
2023-02-22T18:53:47.072Z,14.52
2023-02-22T18:56:22.025Z,14.54
2023-02-22T18:58:53.999Z,14.63
2023-02-22T19:01:22.413Z,14.69
2023-02-22T19:03:51.937Z,14.65
2023-02-22T19:06:25.160Z,14.59
2023-02-22T19:08:52.333Z,14.62
2023-02-22T19:11:24.367Z,14.63
2023-02-22T19:13:54.096Z,14.64
2023-02-22T19:16:22.907Z,14.59
2023-02-22T19:18:52.662Z,14.56
2023-02-22T19:21:20.505Z,14.54
2023-02-22T19:23:48.757Z,14.44
2023-02-22T19:26:24.153Z,14.36
2023-02-22T19:28:54.315Z,14.49
2023-02-22T19:31:23.777Z,14.49
2023-02-22T19:33:53.945Z,14.56
2023-02-22T19:36:25.609Z,14.64
2023-02-22T19:38:52.660Z,14.66
2023-02-22T19:41:22.172Z,14.73
2023-02-22T19:43:51.164Z,14.78
2023-02-22T19:46:19.081Z,14.76
2023-02-22T19:48:46.254Z,14.79
2023-02-22T19:51:16.168Z,14.81
2023-02-22T19:53:44.330Z,14.83
2023-02-22T19:56:17.361Z,14.83
2023-02-22T19:58:46.837Z,14.85
2023-02-22T20:01:23.357Z,14.86
2023-02-22T20:03:56.466Z,14.85
2023-02-22T20:06:34.993Z,14.86
2023-02-22T20:09:02.758Z,14.85
2023-02-22T20:11:30.052Z,14.84
2023-02-22T20:13:57.217Z,14.83
2023-02-22T20:16:24.450Z,14.82
2023-02-22T20:18:51.766Z,14.82
2023-02-22T20:21:36.747Z,14.82
2023-02-22T20:24:05.625Z,14.77
2023-02-22T20:26:34.552Z,14.76
2023-02-22T20:29:04.196Z,14.75
2023-02-22T20:31:32.004Z,14.76
2023-02-22T20:34:00.375Z,14.77
2023-02-22T20:36:30.042Z,14.78
2023-02-22T20:38:59.233Z,14.78
2023-02-22T20:41:32.372Z,14.77
2023-02-22T20:44:01.134Z,14.75
2023-02-22T20:46:31.742Z,14.74
2023-02-22T20:49:00.892Z,14.71
2023-02-22T20:51:28.995Z,14.66
2023-02-22T20:53:59.921Z,14.69
2023-02-22T20:56:29.031Z,14.65
2023-02-22T20:58:57.609Z,14.64
2023-02-22T21:01:24.717Z,14.66
2023-02-22T21:03:52.596Z,14.65
2023-02-22T21:06:22.143Z,14.65
2023-02-22T21:08:55.508Z,14.65
2023-02-22T21:11:24.111Z,14.65
2023-02-22T21:13:52.626Z,14.61
2023-02-22T21:16:26.187Z,14.60
2023-02-22T21:18:59.219Z,14.60
2023-02-22T21:21:28.044Z,14.59
2023-02-22T21:23:57.355Z,14.58
2023-02-22T21:26:29.695Z,14.59
2023-02-22T21:29:02.345Z,14.56
2023-02-22T21:31:29.926Z,14.54
2023-02-22T21:34:02.267Z,14.49
2023-02-22T21:36:29.825Z,14.47
2023-02-22T21:38:59.483Z,14.46
2023-02-22T21:41:29.240Z,14.42
2023-02-22T21:43:57.916Z,14.44
2023-02-22T21:46:26.673Z,14.43
2023-02-22T21:48:53.912Z,14.43
2023-02-22T21:51:25.440Z,14.45
2023-02-22T21:53:54.561Z,14.44
2023-02-22T21:56:27.430Z,14.42
2023-02-22T21:58:59.973Z,14.39
2023-02-22T22:01:32.107Z,14.36
2023-02-22T22:04:01.055Z,14.33
2023-02-22T22:06:29.953Z,14.27
2023-02-22T22:08:58.004Z,14.27
2023-02-22T22:11:25.492Z,14.29
2023-02-22T22:13:57.727Z,14.28
2023-02-22T22:16:28.036Z,14.29
2023-02-22T22:18:55.654Z,14.30
2023-02-22T22:21:24.373Z,14.29
2023-02-22T22:23:54.545Z,14.32
2023-02-22T22:26:24.749Z,14.31
2023-02-22T22:28:58.568Z,14.32
2023-02-22T22:31:26.993Z,14.30
2023-02-22T22:33:56.329Z,14.29
2023-02-22T22:36:25.259Z,14.27
2023-02-22T22:38:52.981Z,14.23
2023-02-22T22:41:22.093Z,14.25
2023-02-22T22:43:49.120Z,14.21
2023-02-22T22:46:18.143Z,14.20
2023-02-22T22:48:47.419Z,14.20
2023-02-22T22:51:18.779Z,14.19
2023-02-22T22:53:47.760Z,14.16
2023-02-22T22:56:17.937Z,14.16
2023-02-22T22:58:54.827Z,14.14
2023-02-22T23:01:28.133Z,14.09
2023-02-22T23:03:59.852Z,14.06
2023-02-22T23:06:33.988Z,14.05
2023-02-22T23:09:11.868Z,14.03
2023-02-22T23:11:45.114Z,14.02
2023-02-22T23:14:15.112Z,14.01
2023-02-22T23:16:43.030Z,13.99
2023-02-22T23:19:10.156Z,13.97
2023-02-22T23:21:38.898Z,13.95
2023-02-22T23:24:07.055Z,13.93
2023-02-22T23:26:34.519Z,13.91
2023-02-22T23:29:02.624Z,13.88
2023-02-22T23:31:29.974Z,13.88
2023-02-22T23:33:59.049Z,13.85
2023-02-22T23:36:26.907Z,13.84
2023-02-22T23:38:54.394Z,13.81
2023-02-22T23:41:25.159Z,13.81
2023-02-22T23:43:52.300Z,13.82
2023-02-22T23:46:19.658Z,13.81
2023-02-22T23:48:52.586Z,13.79
2023-02-22T23:51:26.066Z,13.71
2023-02-22T23:53:55.909Z,13.72
2023-02-22T23:56:26.600Z,13.73
2023-02-22T23:58:57.537Z,13.69
